sensor_id;sensor_type;location;lat;lon;timestamp;P1;durP1;ratioP1;P2;durP2;ratioP2
13568;SDS011;6856;51.460;7.158;2023-04-22T00:01:31;2.87;;;1.80;;
13568;SDS011;6856;51.460;7.158;2023-04-22T00:04:08;4.23;;;2.23;;
13568;SDS011;6856;51.460;7.158;2023-04-22T00:06:42;2.60;;;1.93;;
13568;SDS011;6856;51.460;7.158;2023-04-22T00:09:16;2.87;;;2.17;;
13568;SDS011;6856;51.460;7.158;2023-04-22T00:11:52;2.57;;;1.93;;
13568;SDS011;6856;51.460;7.158;2023-04-22T00:14:28;2.33;;;1.97;;
13568;SDS011;6856;51.460;7.158;2023-04-22T00:17:03;2.70;;;1.87;;
13568;SDS011;6856;51.460;7.158;2023-04-22T00:19:37;3.10;;;2.20;;
13568;SDS011;6856;51.460;7.158;2023-04-22T00:22:12;2.23;;;1.83;;
13568;SDS011;6856;51.460;7.158;2023-04-22T00:24:45;2.83;;;2.13;;
13568;SDS011;6856;51.460;7.158;2023-04-22T00:27:19;2.07;;;1.80;;
13568;SDS011;6856;51.460;7.158;2023-04-22T00:29:58;2.23;;;1.80;;
13568;SDS011;6856;51.460;7.158;2023-04-22T00:32:33;1.70;;;1.47;;
13568;SDS011;6856;51.460;7.158;2023-04-22T00:35:09;2.60;;;2.00;;
13568;SDS011;6856;51.460;7.158;2023-04-22T00:37:42;4.27;;;2.33;;
13568;SDS011;6856;51.460;7.158;2023-04-22T00:40:16;3.93;;;2.37;;
13568;SDS011;6856;51.460;7.158;2023-04-22T00:42:50;4.63;;;2.30;;
13568;SDS011;6856;51.460;7.158;2023-04-22T00:45:29;3.60;;;2.00;;
13568;SDS011;6856;51.460;7.158;2023-04-22T00:48:04;3.27;;;2.20;;
13568;SDS011;6856;51.460;7.158;2023-04-22T00:50:42;2.40;;;1.90;;
13568;SDS011;6856;51.460;7.158;2023-04-22T00:53:15;2.73;;;2.10;;
13568;SDS011;6856;51.460;7.158;2023-04-22T00:55:51;2.50;;;1.90;;
13568;SDS011;6856;51.460;7.158;2023-04-22T00:58:26;2.70;;;1.97;;
13568;SDS011;6856;51.460;7.158;2023-04-22T01:01:02;2.33;;;1.90;;
13568;SDS011;6856;51.460;7.158;2023-04-22T01:03:37;5.10;;;2.20;;
13568;SDS011;6856;51.460;7.158;2023-04-22T01:06:13;3.07;;;2.47;;
13568;SDS011;6856;51.460;7.158;2023-04-22T01:08:51;6.33;;;2.77;;
13568;SDS011;6856;51.460;7.158;2023-04-22T01:11:25;2.33;;;2.03;;
13568;SDS011;6856;51.460;7.158;2023-04-22T01:13:59;3.97;;;2.53;;
13568;SDS011;6856;51.460;7.158;2023-04-22T01:16:38;2.93;;;2.30;;
13568;SDS011;6856;51.460;7.158;2023-04-22T01:19:14;3.07;;;2.53;;
13568;SDS011;6856;51.460;7.158;2023-04-22T01:21:49;3.07;;;2.57;;
13568;SDS011;6856;51.460;7.158;2023-04-22T01:24:28;2.50;;;2.20;;
13568;SDS011;6856;51.460;7.158;2023-04-22T01:27:02;3.07;;;2.33;;
13568;SDS011;6856;51.460;7.158;2023-04-22T01:29:36;3.53;;;2.53;;
13568;SDS011;6856;51.460;7.158;2023-04-22T01:32:13;2.83;;;2.23;;
13568;SDS011;6856;51.460;7.158;2023-04-22T01:34:49;3.17;;;2.30;;
13568;SDS011;6856;51.460;7.158;2023-04-22T01:37:23;2.80;;;2.20;;
13568;SDS011;6856;51.460;7.158;2023-04-22T01:40:02;3.53;;;2.73;;
13568;SDS011;6856;51.460;7.158;2023-04-22T01:42:38;5.03;;;2.63;;
13568;SDS011;6856;51.460;7.158;2023-04-22T01:45:11;4.53;;;2.47;;
13568;SDS011;6856;51.460;7.158;2023-04-22T01:47:48;4.20;;;2.70;;
13568;SDS011;6856;51.460;7.158;2023-04-22T01:50:22;4.13;;;2.70;;
13568;SDS011;6856;51.460;7.158;2023-04-22T01:52:56;3.47;;;2.47;;
13568;SDS011;6856;51.460;7.158;2023-04-22T01:55:32;3.17;;;2.00;;
13568;SDS011;6856;51.460;7.158;2023-04-22T01:58:09;2.80;;;2.00;;
13568;SDS011;6856;51.460;7.158;2023-04-22T02:00:43;2.97;;;2.17;;
13568;SDS011;6856;51.460;7.158;2023-04-22T02:03:18;2.77;;;2.03;;
13568;SDS011;6856;51.460;7.158;2023-04-22T02:05:52;3.03;;;2.13;;
13568;SDS011;6856;51.460;7.158;2023-04-22T02:08:27;1.93;;;1.77;;
13568;SDS011;6856;51.460;7.158;2023-04-22T02:11:03;3.03;;;2.20;;
13568;SDS011;6856;51.460;7.158;2023-04-22T02:13:39;2.97;;;2.07;;
13568;SDS011;6856;51.460;7.158;2023-04-22T02:16:13;2.27;;;1.80;;
13568;SDS011;6856;51.460;7.158;2023-04-22T02:18:47;2.40;;;1.90;;
13568;SDS011;6856;51.460;7.158;2023-04-22T02:21:22;2.67;;;1.80;;
13568;SDS011;6856;51.460;7.158;2023-04-22T02:23:57;2.90;;;1.90;;
13568;SDS011;6856;51.460;7.158;2023-04-22T02:26:34;2.40;;;2.00;;
13568;SDS011;6856;51.460;7.158;2023-04-22T02:29:12;3.37;;;2.40;;
13568;SDS011;6856;51.460;7.158;2023-04-22T02:31:46;3.80;;;1.87;;
13568;SDS011;6856;51.460;7.158;2023-04-22T02:34:20;3.17;;;2.00;;
13568;SDS011;6856;51.460;7.158;2023-04-22T02:36:54;2.47;;;1.90;;
13568;SDS011;6856;51.460;7.158;2023-04-22T02:39:28;2.57;;;1.80;;
13568;SDS011;6856;51.460;7.158;2023-04-22T02:42:03;2.70;;;2.10;;
13568;SDS011;6856;51.460;7.158;2023-04-22T02:44:37;1.83;;;1.70;;
13568;SDS011;6856;51.460;7.158;2023-04-22T02:47:11;2.80;;;2.00;;
13568;SDS011;6856;51.460;7.158;2023-04-22T02:49:45;2.37;;;1.87;;
13568;SDS011;6856;51.460;7.158;2023-04-22T02:52:19;3.03;;;1.73;;
13568;SDS011;6856;51.460;7.158;2023-04-22T02:54:53;2.73;;;2.13;;
13568;SDS011;6856;51.460;7.158;2023-04-22T02:57:29;2.70;;;1.93;;
13568;SDS011;6856;51.460;7.158;2023-04-22T03:00:04;2.27;;;1.93;;
13568;SDS011;6856;51.460;7.158;2023-04-22T03:02:42;2.90;;;2.13;;
13568;SDS011;6856;51.460;7.158;2023-04-22T03:05:16;2.07;;;1.60;;
13568;SDS011;6856;51.460;7.158;2023-04-22T03:07:52;2.43;;;2.20;;
13568;SDS011;6856;51.460;7.158;2023-04-22T03:10:25;2.53;;;1.90;;
13568;SDS011;6856;51.460;7.158;2023-04-22T03:13:01;2.60;;;2.00;;
13568;SDS011;6856;51.460;7.158;2023-04-22T03:15:35;3.27;;;1.87;;
13568;SDS011;6856;51.460;7.158;2023-04-22T03:18:10;1.83;;;1.53;;
13568;SDS011;6856;51.460;7.158;2023-04-22T03:20:50;2.90;;;2.10;;
13568;SDS011;6856;51.460;7.158;2023-04-22T03:23:26;2.50;;;2.07;;
13568;SDS011;6856;51.460;7.158;2023-04-22T03:26:01;3.07;;;2.23;;
13568;SDS011;6856;51.460;7.158;2023-04-22T03:28:36;3.17;;;2.27;;
13568;SDS011;6856;51.460;7.158;2023-04-22T03:31:16;3.10;;;2.20;;
13568;SDS011;6856;51.460;7.158;2023-04-22T03:33:50;2.73;;;2.27;;
13568;SDS011;6856;51.460;7.158;2023-04-22T03:36:24;2.57;;;1.83;;
13568;SDS011;6856;51.460;7.158;2023-04-22T03:38:58;2.87;;;1.90;;
13568;SDS011;6856;51.460;7.158;2023-04-22T03:41:32;3.97;;;2.13;;
13568;SDS011;6856;51.460;7.158;2023-04-22T03:44:08;3.20;;;2.23;;
13568;SDS011;6856;51.460;7.158;2023-04-22T03:46:45;3.00;;;2.20;;
13568;SDS011;6856;51.460;7.158;2023-04-22T03:49:19;2.80;;;2.17;;
13568;SDS011;6856;51.460;7.158;2023-04-22T03:51:53;3.50;;;2.40;;
13568;SDS011;6856;51.460;7.158;2023-04-22T03:54:30;2.53;;;2.20;;
13568;SDS011;6856;51.460;7.158;2023-04-22T03:57:04;3.77;;;2.40;;
13568;SDS011;6856;51.460;7.158;2023-04-22T03:59:46;3.30;;;2.50;;
13568;SDS011;6856;51.460;7.158;2023-04-22T04:02:20;3.57;;;2.40;;
13568;SDS011;6856;51.460;7.158;2023-04-22T04:04:54;3.00;;;2.20;;
13568;SDS011;6856;51.460;7.158;2023-04-22T04:07:29;3.60;;;2.50;;
13568;SDS011;6856;51.460;7.158;2023-04-22T04:10:04;2.57;;;1.93;;
13568;SDS011;6856;51.460;7.158;2023-04-22T04:12:40;2.87;;;1.97;;
13568;SDS011;6856;51.460;7.158;2023-04-22T04:15:18;3.17;;;2.47;;
13568;SDS011;6856;51.460;7.158;2023-04-22T04:17:52;3.33;;;2.43;;
13568;SDS011;6856;51.460;7.158;2023-04-22T04:20:39;2.57;;;2.00;;
13568;SDS011;6856;51.460;7.158;2023-04-22T04:23:18;2.70;;;2.30;;
13568;SDS011;6856;51.460;7.158;2023-04-22T04:25:52;3.47;;;2.20;;
13568;SDS011;6856;51.460;7.158;2023-04-22T04:28:26;2.93;;;2.10;;
13568;SDS011;6856;51.460;7.158;2023-04-22T04:31:08;3.17;;;1.90;;
13568;SDS011;6856;51.460;7.158;2023-04-22T04:33:43;2.30;;;1.90;;
13568;SDS011;6856;51.460;7.158;2023-04-22T04:36:17;2.37;;;1.90;;
13568;SDS011;6856;51.460;7.158;2023-04-22T04:38:51;2.70;;;2.10;;
13568;SDS011;6856;51.460;7.158;2023-04-22T04:41:26;2.27;;;1.87;;
13568;SDS011;6856;51.460;7.158;2023-04-22T04:44:00;2.70;;;1.97;;
13568;SDS011;6856;51.460;7.158;2023-04-22T04:46:39;1.73;;;1.60;;
13568;SDS011;6856;51.460;7.158;2023-04-22T04:49:13;2.93;;;1.67;;
13568;SDS011;6856;51.460;7.158;2023-04-22T04:51:47;2.23;;;1.77;;
13568;SDS011;6856;51.460;7.158;2023-04-22T04:54:21;1.87;;;1.67;;
13568;SDS011;6856;51.460;7.158;2023-04-22T04:56:55;2.97;;;1.77;;
13568;SDS011;6856;51.460;7.158;2023-04-22T04:59:32;2.70;;;1.90;;
13568;SDS011;6856;51.460;7.158;2023-04-22T05:02:08;2.00;;;1.60;;
13568;SDS011;6856;51.460;7.158;2023-04-22T05:04:41;2.40;;;1.90;;
13568;SDS011;6856;51.460;7.158;2023-04-22T05:07:16;2.53;;;1.80;;
13568;SDS011;6856;51.460;7.158;2023-04-22T05:09:52;2.33;;;1.70;;
13568;SDS011;6856;51.460;7.158;2023-04-22T05:12:28;2.50;;;1.80;;
13568;SDS011;6856;51.460;7.158;2023-04-22T05:15:04;2.10;;;1.80;;
13568;SDS011;6856;51.460;7.158;2023-04-22T05:17:41;2.63;;;1.77;;
13568;SDS011;6856;51.460;7.158;2023-04-22T05:20:16;2.07;;;1.73;;
13568;SDS011;6856;51.460;7.158;2023-04-22T05:22:50;1.90;;;1.60;;
13568;SDS011;6856;51.460;7.158;2023-04-22T05:25:24;2.30;;;1.77;;
13568;SDS011;6856;51.460;7.158;2023-04-22T05:28:00;2.30;;;1.60;;
13568;SDS011;6856;51.460;7.158;2023-04-22T05:30:34;2.63;;;1.80;;
13568;SDS011;6856;51.460;7.158;2023-04-22T05:33:24;2.07;;;1.80;;
13568;SDS011;6856;51.460;7.158;2023-04-22T05:35:58;2.07;;;1.67;;
13568;SDS011;6856;51.460;7.158;2023-04-22T05:38:32;2.23;;;1.70;;
13568;SDS011;6856;51.460;7.158;2023-04-22T05:41:07;2.50;;;1.83;;
13568;SDS011;6856;51.460;7.158;2023-04-22T05:43:41;2.00;;;1.67;;
13568;SDS011;6856;51.460;7.158;2023-04-22T05:46:16;2.10;;;1.80;;
13568;SDS011;6856;51.460;7.158;2023-04-22T05:48:52;2.77;;;1.87;;
13568;SDS011;6856;51.460;7.158;2023-04-22T05:51:26;2.80;;;1.60;;
13568;SDS011;6856;51.460;7.158;2023-04-22T05:54:00;1.47;;;1.30;;
13568;SDS011;6856;51.460;7.158;2023-04-22T05:56:34;2.07;;;1.57;;
13568;SDS011;6856;51.460;7.158;2023-04-22T05:59:08;3.50;;;1.97;;
13568;SDS011;6856;51.460;7.158;2023-04-22T06:01:42;3.60;;;1.73;;
13568;SDS011;6856;51.460;7.158;2023-04-22T06:04:17;1.60;;;1.40;;
13568;SDS011;6856;51.460;7.158;2023-04-22T06:06:52;2.00;;;1.63;;
13568;SDS011;6856;51.460;7.158;2023-04-22T06:09:26;3.07;;;1.40;;
13568;SDS011;6856;51.460;7.158;2023-04-22T06:12:01;2.87;;;1.60;;
13568;SDS011;6856;51.460;7.158;2023-04-22T06:14:37;2.10;;;1.43;;
13568;SDS011;6856;51.460;7.158;2023-04-22T06:17:11;2.40;;;1.57;;
13568;SDS011;6856;51.460;7.158;2023-04-22T06:19:47;2.50;;;1.63;;
13568;SDS011;6856;51.460;7.158;2023-04-22T06:22:28;3.30;;;1.63;;
13568;SDS011;6856;51.460;7.158;2023-04-22T06:25:02;2.00;;;1.40;;
13568;SDS011;6856;51.460;7.158;2023-04-22T06:27:37;2.13;;;1.70;;
13568;SDS011;6856;51.460;7.158;2023-04-22T06:30:25;2.00;;;1.50;;
13568;SDS011;6856;51.460;7.158;2023-04-22T06:32:59;2.47;;;1.60;;
13568;SDS011;6856;51.460;7.158;2023-04-22T06:35:37;2.13;;;1.50;;
13568;SDS011;6856;51.460;7.158;2023-04-22T06:38:11;2.17;;;1.60;;
13568;SDS011;6856;51.460;7.158;2023-04-22T06:40:46;1.83;;;1.70;;
13568;SDS011;6856;51.460;7.158;2023-04-22T06:43:20;2.40;;;1.60;;
13568;SDS011;6856;51.460;7.158;2023-04-22T06:45:54;2.93;;;1.57;;
13568;SDS011;6856;51.460;7.158;2023-04-22T06:48:28;2.20;;;1.43;;
13568;SDS011;6856;51.460;7.158;2023-04-22T06:51:03;2.13;;;1.67;;
13568;SDS011;6856;51.460;7.158;2023-04-22T06:53:37;1.50;;;1.23;;
13568;SDS011;6856;51.460;7.158;2023-04-22T06:56:11;1.77;;;1.33;;
13568;SDS011;6856;51.460;7.158;2023-04-22T06:58:45;1.57;;;1.23;;
13568;SDS011;6856;51.460;7.158;2023-04-22T07:01:19;2.97;;;1.70;;
13568;SDS011;6856;51.460;7.158;2023-04-22T07:03:54;1.57;;;1.40;;
13568;SDS011;6856;51.460;7.158;2023-04-22T07:06:29;1.80;;;1.50;;
13568;SDS011;6856;51.460;7.158;2023-04-22T07:09:03;2.83;;;1.60;;
13568;SDS011;6856;51.460;7.158;2023-04-22T07:11:37;1.70;;;1.40;;
13568;SDS011;6856;51.460;7.158;2023-04-22T07:14:10;1.93;;;1.50;;
13568;SDS011;6856;51.460;7.158;2023-04-22T07:16:45;2.10;;;1.40;;
13568;SDS011;6856;51.460;7.158;2023-04-22T07:19:19;3.00;;;1.40;;
13568;SDS011;6856;51.460;7.158;2023-04-22T07:21:56;1.50;;;1.40;;
13568;SDS011;6856;51.460;7.158;2023-04-22T07:24:30;1.67;;;1.30;;
13568;SDS011;6856;51.460;7.158;2023-04-22T07:27:04;2.47;;;1.40;;
13568;SDS011;6856;51.460;7.158;2023-04-22T07:29:39;2.20;;;1.23;;
13568;SDS011;6856;51.460;7.158;2023-04-22T07:32:14;1.93;;;1.50;;
13568;SDS011;6856;51.460;7.158;2023-04-22T07:34:49;1.93;;;1.60;;
13568;SDS011;6856;51.460;7.158;2023-04-22T07:37:33;1.90;;;1.20;;
13568;SDS011;6856;51.460;7.158;2023-04-22T07:40:12;1.97;;;1.40;;
13568;SDS011;6856;51.460;7.158;2023-04-22T07:42:46;2.07;;;1.43;;
13568;SDS011;6856;51.460;7.158;2023-04-22T07:45:25;1.97;;;1.30;;
13568;SDS011;6856;51.460;7.158;2023-04-22T07:47:59;1.53;;;1.10;;
13568;SDS011;6856;51.460;7.158;2023-04-22T07:50:38;1.80;;;1.30;;
13568;SDS011;6856;51.460;7.158;2023-04-22T07:53:15;3.07;;;1.50;;
13568;SDS011;6856;51.460;7.158;2023-04-22T07:55:48;1.60;;;1.37;;
13568;SDS011;6856;51.460;7.158;2023-04-22T07:58:23;2.40;;;1.30;;
13568;SDS011;6856;51.460;7.158;2023-04-22T08:00:57;1.53;;;1.17;;
13568;SDS011;6856;51.460;7.158;2023-04-22T08:03:32;2.87;;;1.40;;
13568;SDS011;6856;51.460;7.158;2023-04-22T08:06:06;2.53;;;1.50;;
13568;SDS011;6856;51.460;7.158;2023-04-22T08:08:44;2.23;;;1.50;;
13568;SDS011;6856;51.460;7.158;2023-04-22T08:11:20;2.13;;;1.40;;
13568;SDS011;6856;51.460;7.158;2023-04-22T08:13:54;2.63;;;1.40;;
13568;SDS011;6856;51.460;7.158;2023-04-22T08:16:28;1.20;;;1.10;;
13568;SDS011;6856;51.460;7.158;2023-04-22T08:19:04;2.20;;;1.50;;
13568;SDS011;6856;51.460;7.158;2023-04-22T08:21:39;2.73;;;1.40;;
13568;SDS011;6856;51.460;7.158;2023-04-22T08:24:14;1.13;;;1.00;;
13568;SDS011;6856;51.460;7.158;2023-04-22T08:26:48;1.60;;;1.27;;
13568;SDS011;6856;51.460;7.158;2023-04-22T08:29:24;2.10;;;1.40;;
13568;SDS011;6856;51.460;7.158;2023-04-22T08:31:57;1.80;;;1.30;;
13568;SDS011;6856;51.460;7.158;2023-04-22T08:34:31;2.90;;;1.20;;
13568;SDS011;6856;51.460;7.158;2023-04-22T08:37:07;2.17;;;1.20;;
13568;SDS011;6856;51.460;7.158;2023-04-22T08:39:43;2.23;;;1.30;;
13568;SDS011;6856;51.460;7.158;2023-04-22T08:42:20;2.33;;;1.50;;
13568;SDS011;6856;51.460;7.158;2023-04-22T08:44:54;1.27;;;1.13;;
13568;SDS011;6856;51.460;7.158;2023-04-22T08:47:30;1.37;;;1.17;;
13568;SDS011;6856;51.460;7.158;2023-04-22T08:50:09;2.13;;;1.10;;
13568;SDS011;6856;51.460;7.158;2023-04-22T08:52:43;1.47;;;1.13;;
13568;SDS011;6856;51.460;7.158;2023-04-22T08:55:19;1.30;;;1.17;;
13568;SDS011;6856;51.460;7.158;2023-04-22T08:57:53;1.27;;;1.07;;
13568;SDS011;6856;51.460;7.158;2023-04-22T09:00:27;1.13;;;1.00;;
13568;SDS011;6856;51.460;7.158;2023-04-22T09:03:02;1.70;;;1.27;;
13568;SDS011;6856;51.460;7.158;2023-04-22T09:05:39;2.70;;;1.30;;
13568;SDS011;6856;51.460;7.158;2023-04-22T09:08:15;1.00;;;1.00;;
13568;SDS011;6856;51.460;7.158;2023-04-22T09:10:51;1.80;;;1.30;;
13568;SDS011;6856;51.460;7.158;2023-04-22T09:13:27;1.13;;;1.07;;
13568;SDS011;6856;51.460;7.158;2023-04-22T09:16:02;1.63;;;1.10;;
13568;SDS011;6856;51.460;7.158;2023-04-22T09:18:41;2.03;;;1.13;;
13568;SDS011;6856;51.460;7.158;2023-04-22T09:21:16;1.67;;;1.07;;
13568;SDS011;6856;51.460;7.158;2023-04-22T09:23:59;1.67;;;1.27;;
13568;SDS011;6856;51.460;7.158;2023-04-22T09:26:37;1.88;;;1.30;;
13568;SDS011;6856;51.460;7.158;2023-04-22T09:29:14;2.00;;;1.05;;
13568;SDS011;6856;51.460;7.158;2023-04-22T09:31:49;2.85;;;1.52;;
13568;SDS011;6856;51.460;7.158;2023-04-22T09:34:22;1.10;;;0.93;;
13568;SDS011;6856;51.460;7.158;2023-04-22T09:36:58;2.42;;;1.45;;
13568;SDS011;6856;51.460;7.158;2023-04-22T09:39:32;1.23;;;1.13;;
13568;SDS011;6856;51.460;7.158;2023-04-22T09:42:08;1.50;;;1.30;;
13568;SDS011;6856;51.460;7.158;2023-04-22T09:44:46;1.42;;;1.30;;
13568;SDS011;6856;51.460;7.158;2023-04-22T09:47:24;1.75;;;1.08;;
13568;SDS011;6856;51.460;7.158;2023-04-22T09:49:57;1.30;;;1.13;;
13568;SDS011;6856;51.460;7.158;2023-04-22T09:52:39;1.58;;;1.20;;
13568;SDS011;6856;51.460;7.158;2023-04-22T09:55:13;3.22;;;1.20;;
13568;SDS011;6856;51.460;7.158;2023-04-22T09:57:51;1.63;;;1.20;;
13568;SDS011;6856;51.460;7.158;2023-04-22T10:00:29;1.65;;;1.08;;
13568;SDS011;6856;51.460;7.158;2023-04-22T10:03:04;1.80;;;1.30;;
13568;SDS011;6856;51.460;7.158;2023-04-22T10:05:41;1.73;;;1.10;;
13568;SDS011;6856;51.460;7.158;2023-04-22T10:08:24;1.92;;;1.13;;
13568;SDS011;6856;51.460;7.158;2023-04-22T10:10:58;1.90;;;1.05;;
13568;SDS011;6856;51.460;7.158;2023-04-22T10:13:34;1.55;;;1.15;;
13568;SDS011;6856;51.460;7.158;2023-04-22T10:16:08;1.77;;;1.27;;
13568;SDS011;6856;51.460;7.158;2023-04-22T10:18:45;1.80;;;1.30;;
13568;SDS011;6856;51.460;7.158;2023-04-22T10:21:23;1.55;;;1.10;;
13568;SDS011;6856;51.460;7.158;2023-04-22T10:23:59;1.35;;;1.13;;
13568;SDS011;6856;51.460;7.158;2023-04-22T10:26:38;1.17;;;1.02;;
13568;SDS011;6856;51.460;7.158;2023-04-22T10:29:22;1.30;;;1.00;;
13568;SDS011;6856;51.460;7.158;2023-04-22T10:32:02;1.38;;;1.25;;
13568;SDS011;6856;51.460;7.158;2023-04-22T10:34:41;1.45;;;1.13;;
13568;SDS011;6856;51.460;7.158;2023-04-22T10:37:16;2.00;;;1.40;;
13568;SDS011;6856;51.460;7.158;2023-04-22T10:40:04;2.53;;;1.48;;
13568;SDS011;6856;51.460;7.158;2023-04-22T10:42:45;1.63;;;1.20;;
13568;SDS011;6856;51.460;7.158;2023-04-22T10:45:28;1.80;;;1.00;;
13568;SDS011;6856;51.460;7.158;2023-04-22T10:48:04;1.48;;;1.10;;
13568;SDS011;6856;51.460;7.158;2023-04-22T10:50:40;1.33;;;1.17;;
13568;SDS011;6856;51.460;7.158;2023-04-22T10:56:15;1.15;;;1.05;;
13568;SDS011;6856;51.460;7.158;2023-04-22T10:58:49;1.65;;;1.23;;
13568;SDS011;6856;51.460;7.158;2023-04-22T11:01:29;1.63;;;1.13;;
13568;SDS011;6856;51.460;7.158;2023-04-22T11:04:19;3.47;;;1.52;;
13568;SDS011;6856;51.460;7.158;2023-04-22T11:07:13;1.20;;;1.10;;
13568;SDS011;6856;51.460;7.158;2023-04-22T11:10:07;1.80;;;1.30;;
13568;SDS011;6856;51.460;7.158;2023-04-22T11:12:48;1.40;;;0.88;;
13568;SDS011;6856;51.460;7.158;2023-04-22T11:15:22;2.05;;;1.50;;
13568;SDS011;6856;51.460;7.158;2023-04-22T11:17:58;2.20;;;1.40;;
13568;SDS011;6856;51.460;7.158;2023-04-22T11:20:33;2.38;;;1.50;;
13568;SDS011;6856;51.460;7.158;2023-04-22T11:23:08;4.43;;;1.27;;
13568;SDS011;6856;51.460;7.158;2023-04-22T11:25:42;1.30;;;1.10;;
13568;SDS011;6856;51.460;7.158;2023-04-22T11:28:16;1.10;;;1.00;;
13568;SDS011;6856;51.460;7.158;2023-04-22T11:31:03;1.50;;;1.23;;
13568;SDS011;6856;51.460;7.158;2023-04-22T11:33:41;1.42;;;1.20;;
13568;SDS011;6856;51.460;7.158;2023-04-22T11:36:15;2.22;;;1.30;;
13568;SDS011;6856;51.460;7.158;2023-04-22T11:38:53;2.35;;;1.15;;
13568;SDS011;6856;51.460;7.158;2023-04-22T11:41:27;1.42;;;1.23;;
13568;SDS011;6856;51.460;7.158;2023-04-22T11:44:02;2.38;;;1.30;;
13568;SDS011;6856;51.460;7.158;2023-04-22T11:46:36;1.73;;;1.40;;
13568;SDS011;6856;51.460;7.158;2023-04-22T11:49:12;1.45;;;1.35;;
13568;SDS011;6856;51.460;7.158;2023-04-22T11:51:59;1.48;;;1.38;;
13568;SDS011;6856;51.460;7.158;2023-04-22T11:54:34;3.30;;;1.58;;
13568;SDS011;6856;51.460;7.158;2023-04-22T11:57:10;1.73;;;1.30;;
13568;SDS011;6856;51.460;7.158;2023-04-22T11:59:55;1.65;;;1.30;;
13568;SDS011;6856;51.460;7.158;2023-04-22T12:02:30;1.55;;;1.20;;
13568;SDS011;6856;51.460;7.158;2023-04-22T12:05:10;3.03;;;1.52;;
13568;SDS011;6856;51.460;7.158;2023-04-22T12:07:44;2.13;;;1.33;;
13568;SDS011;6856;51.460;7.158;2023-04-22T12:10:37;3.20;;;1.48;;
13568;SDS011;6856;51.460;7.158;2023-04-22T12:13:17;4.43;;;1.70;;
13568;SDS011;6856;51.460;7.158;2023-04-22T12:15:53;1.40;;;1.20;;
13568;SDS011;6856;51.460;7.158;2023-04-22T12:18:30;2.58;;;1.67;;
13568;SDS011;6856;51.460;7.158;2023-04-22T12:21:08;3.42;;;1.50;;
13568;SDS011;6856;51.460;7.158;2023-04-22T12:23:45;2.03;;;1.60;;
13568;SDS011;6856;51.460;7.158;2023-04-22T12:26:21;3.47;;;1.75;;
13568;SDS011;6856;51.460;7.158;2023-04-22T12:28:58;2.47;;;1.30;;
13568;SDS011;6856;51.460;7.158;2023-04-22T12:31:36;1.98;;;1.40;;
13568;SDS011;6856;51.460;7.158;2023-04-22T12:34:10;1.75;;;1.40;;
13568;SDS011;6856;51.460;7.158;2023-04-22T12:36:46;1.92;;;1.33;;
13568;SDS011;6856;51.460;7.158;2023-04-22T12:39:22;1.42;;;1.13;;
13568;SDS011;6856;51.460;7.158;2023-04-22T12:41:56;2.08;;;1.40;;
13568;SDS011;6856;51.460;7.158;2023-04-22T12:44:30;2.25;;;1.50;;
13568;SDS011;6856;51.460;7.158;2023-04-22T12:47:06;2.42;;;1.30;;
13568;SDS011;6856;51.460;7.158;2023-04-22T12:49:41;2.20;;;1.27;;
13568;SDS011;6856;51.460;7.158;2023-04-22T12:52:19;2.65;;;1.80;;
13568;SDS011;6856;51.460;7.158;2023-04-22T12:54:54;2.25;;;1.70;;
13568;SDS011;6856;51.460;7.158;2023-04-22T12:57:28;1.73;;;1.30;;
13568;SDS011;6856;51.460;7.158;2023-04-22T13:00:03;3.20;;;1.50;;
13568;SDS011;6856;51.460;7.158;2023-04-22T13:02:56;2.97;;;1.40;;
13568;SDS011;6856;51.460;7.158;2023-04-22T13:05:30;2.83;;;1.35;;
13568;SDS011;6856;51.460;7.158;2023-04-22T13:08:05;2.38;;;1.60;;
13568;SDS011;6856;51.460;7.158;2023-04-22T13:10:39;2.10;;;1.25;;
13568;SDS011;6856;51.460;7.158;2023-04-22T13:13:13;2.97;;;1.77;;
13568;SDS011;6856;51.460;7.158;2023-04-22T13:15:51;2.05;;;1.58;;
13568;SDS011;6856;51.460;7.158;2023-04-22T13:18:26;1.75;;;1.48;;
13568;SDS011;6856;51.460;7.158;2023-04-22T13:21:00;1.88;;;1.40;;
13568;SDS011;6856;51.460;7.158;2023-04-22T13:23:41;2.90;;;1.67;;
13568;SDS011;6856;51.460;7.158;2023-04-22T13:26:17;2.25;;;1.50;;
13568;SDS011;6856;51.460;7.158;2023-04-22T13:28:51;2.08;;;1.50;;
13568;SDS011;6856;51.460;7.158;2023-04-22T13:31:25;4.78;;;1.60;;
13568;SDS011;6856;51.460;7.158;2023-04-22T13:33:59;2.25;;;1.85;;
13568;SDS011;6856;51.460;7.158;2023-04-22T13:36:33;1.67;;;1.27;;
13568;SDS011;6856;51.460;7.158;2023-04-22T13:39:08;2.75;;;1.70;;
13568;SDS011;6856;51.460;7.158;2023-04-22T13:41:43;2.78;;;1.55;;
13568;SDS011;6856;51.460;7.158;2023-04-22T13:44:17;4.05;;;1.90;;
13568;SDS011;6856;51.460;7.158;2023-04-22T13:46:51;1.95;;;1.50;;
13568;SDS011;6856;51.460;7.158;2023-04-22T13:49:25;4.30;;;1.60;;
13568;SDS011;6856;51.460;7.158;2023-04-22T13:51:59;2.15;;;1.48;;
13568;SDS011;6856;51.460;7.158;2023-04-22T13:54:35;1.67;;;1.55;;
13568;SDS011;6856;51.460;7.158;2023-04-22T13:57:10;2.25;;;1.70;;
13568;SDS011;6856;51.460;7.158;2023-04-22T13:59:43;2.15;;;1.50;;
13568;SDS011;6856;51.460;7.158;2023-04-22T14:02:17;2.05;;;1.50;;
13568;SDS011;6856;51.460;7.158;2023-04-22T14:04:51;2.13;;;1.50;;
13568;SDS011;6856;51.460;7.158;2023-04-22T14:07:25;2.22;;;1.58;;
13568;SDS011;6856;51.460;7.158;2023-04-22T14:10:00;2.17;;;1.60;;
13568;SDS011;6856;51.460;7.158;2023-04-22T14:12:34;2.42;;;1.48;;
13568;SDS011;6856;51.460;7.158;2023-04-22T14:15:09;1.92;;;1.42;;
13568;SDS011;6856;51.460;7.158;2023-04-22T14:17:42;1.92;;;1.30;;
13568;SDS011;6856;51.460;7.158;2023-04-22T14:20:20;2.38;;;1.75;;
13568;SDS011;6856;51.460;7.158;2023-04-22T14:22:57;1.77;;;1.42;;
13568;SDS011;6856;51.460;7.158;2023-04-22T14:25:32;3.15;;;1.50;;
13568;SDS011;6856;51.460;7.158;2023-04-22T14:28:06;2.38;;;1.40;;
13568;SDS011;6856;51.460;7.158;2023-04-22T14:30:40;2.05;;;1.40;;
13568;SDS011;6856;51.460;7.158;2023-04-22T14:33:15;1.73;;;1.20;;
13568;SDS011;6856;51.460;7.158;2023-04-22T14:35:50;2.70;;;1.25;;
13568;SDS011;6856;51.460;7.158;2023-04-22T14:38:24;2.05;;;1.38;;
13568;SDS011;6856;51.460;7.158;2023-04-22T14:41:01;1.92;;;1.23;;
13568;SDS011;6856;51.460;7.158;2023-04-22T14:43:39;2.10;;;1.50;;
13568;SDS011;6856;51.460;7.158;2023-04-22T14:46:13;1.58;;;1.10;;
13568;SDS011;6856;51.460;7.158;2023-04-22T14:48:47;3.33;;;1.60;;
13568;SDS011;6856;51.460;7.158;2023-04-22T14:51:21;1.90;;;1.55;;
13568;SDS011;6856;51.460;7.158;2023-04-22T14:53:55;2.10;;;1.33;;
13568;SDS011;6856;51.460;7.158;2023-04-22T14:56:30;3.40;;;1.65;;
13568;SDS011;6856;51.460;7.158;2023-04-22T14:59:05;2.03;;;1.48;;
13568;SDS011;6856;51.460;7.158;2023-04-22T15:01:38;3.00;;;1.57;;
13568;SDS011;6856;51.460;7.158;2023-04-22T15:04:13;2.22;;;1.50;;
13568;SDS011;6856;51.460;7.158;2023-04-22T15:06:52;1.53;;;1.40;;
13568;SDS011;6856;51.460;7.158;2023-04-22T15:09:29;2.07;;;1.57;;
13568;SDS011;6856;51.460;7.158;2023-04-22T15:12:04;2.80;;;1.57;;
13568;SDS011;6856;51.460;7.158;2023-04-22T15:14:38;3.43;;;1.80;;
13568;SDS011;6856;51.460;7.158;2023-04-22T15:17:12;2.77;;;1.33;;
13568;SDS011;6856;51.460;7.158;2023-04-22T15:19:46;1.80;;;1.23;;
13568;SDS011;6856;51.460;7.158;2023-04-22T15:22:20;2.20;;;1.40;;
13568;SDS011;6856;51.460;7.158;2023-04-22T15:24:55;1.90;;;1.40;;
13568;SDS011;6856;51.460;7.158;2023-04-22T15:27:30;1.90;;;1.20;;
13568;SDS011;6856;51.460;7.158;2023-04-22T15:30:04;1.47;;;1.37;;
13568;SDS011;6856;51.460;7.158;2023-04-22T15:32:41;2.20;;;1.40;;
13568;SDS011;6856;51.460;7.158;2023-04-22T15:35:15;1.33;;;1.13;;
13568;SDS011;6856;51.460;7.158;2023-04-22T15:37:56;2.20;;;1.40;;
13568;SDS011;6856;51.460;7.158;2023-04-22T15:40:32;1.93;;;1.33;;
13568;SDS011;6856;51.460;7.158;2023-04-22T15:43:08;2.80;;;1.27;;
13568;SDS011;6856;51.460;7.158;2023-04-22T15:45:42;2.50;;;1.33;;
13568;SDS011;6856;51.460;7.158;2023-04-22T15:48:18;1.93;;;1.40;;
13568;SDS011;6856;51.460;7.158;2023-04-22T15:50:52;1.87;;;1.33;;
13568;SDS011;6856;51.460;7.158;2023-04-22T15:53:27;2.80;;;1.30;;
13568;SDS011;6856;51.460;7.158;2023-04-22T15:56:00;1.37;;;1.20;;